Station Historical Data
Daily Summary for January 3, 2017 Units:  Both    English   Metric
« Previous Day
Next Day »
Daily Weekly Monthly Yearly Custom
  High: Low: Average:
Temperature: 43.3 °F /  6.3 °C 38.7 °F /  3.7 °C 41.9 °F /  5.5 °C
Dew Point: 41.7 °F /  5.4 °C 35.8 °F /  2.1 °C 39.4 °F /  4.1 °C
Humidity: 95% 86% 91%
Wind Speed: 6.0mph /  9.7km/h - 1.2mph /  1.9km/h
Wind Gust: 10.0mph /  16.1km/h - -
Wind- - SE
Pressure: 30.05 in /  1017.5 hPa 29.44 in /  996.8 hPa -
Precipitation: 0.00 in /  0 mm    
Historical Graphs
 
 
Tabular Data for January 3, 2017
Time Temperature Dew Point Pressure Wind Wind Speed Wind Gust Humidity Rainfall Rate (Hourly)
00:04 40.7 °F /  4.8 °C 36.8 °F /  2.7 °C 30.05in /  1017.5hPa ESE 2.0mph /  3.2km/h 6.0mph /  9.7km/h 86% 0.00in /  0mm
00:09 40.6 °F /  4.8 °C 36.7 °F /  2.6 °C 30.04in /  1017.2hPa East 2.0mph /  3.2km/h 6.0mph /  9.7km/h 86% 0.00in /  0mm
00:14 40.6 °F /  4.8 °C 36.7 °F /  2.6 °C 30.04in /  1017.2hPa SE 3.0mph /  4.8km/h 5.0mph /  8km/h 86% 0.00in /  0mm
00:19 40.6 °F /  4.8 °C 36.7 °F /  2.6 °C 30.04in /  1017.2hPa SE 3.0mph /  4.8km/h 4.0mph /  6.4km/h 86% 0.00in /  0mm
00:24 40.5 °F /  4.7 °C 36.6 °F /  2.6 °C 30.04in /  1017.2hPa ESE 1.0mph /  1.6km/h 3.0mph /  4.8km/h 86% 0.00in /  0mm
00:29 40.5 °F /  4.7 °C 36.6 °F /  2.6 °C 30.04in /  1017.2hPa SE 2.0mph /  3.2km/h 3.0mph /  4.8km/h 86% 0.00in /  0mm
00:34 40.5 °F /  4.7 °C 36.6 °F /  2.6 °C 30.04in /  1017.2hPa SE 1.0mph /  1.6km/h 4.0mph /  6.4km/h 86% 0.00in /  0mm
00:39 40.5 °F /  4.7 °C 36.6 °F /  2.6 °C 30.05in /  1017.5hPa East 2.0mph /  3.2km/h 4.0mph /  6.4km/h 86% 0.00in /  0mm
00:44 40.5 °F /  4.7 °C 36.6 °F /  2.6 °C 30.05in /  1017.5hPa Calm   2.0mph /  3.2km/h 86% 0.00in /  0mm
00:49 40.5 °F /  4.7 °C 36.6 °F /  2.6 °C 30.05in /  1017.5hPa Calm     86% 0.00in /  0mm
00:54 40.5 °F /  4.7 °C 36.6 °F /  2.6 °C 30.04in /  1017.2hPa Calm     86% 0.00in /  0mm
00:59 40.4 °F /  4.7 °C 36.5 °F /  2.5 °C 30.04in /  1017.2hPa Calm   3.0mph /  4.8km/h 86% 0.00in /  0mm
01:04 40.4 °F /  4.7 °C 36.5 °F /  2.5 °C 30.04in /  1017.2hPa Calm   3.0mph /  4.8km/h 86% 0.00in /  0mm
01:09 40.5 °F /  4.7 °C 36.6 °F /  2.6 °C 30.04in /  1017.2hPa Calm   2.0mph /  3.2km/h 86% 0.00in /  0mm
01:14 40.4 °F /  4.7 °C 36.8 °F /  2.7 °C 30.04in /  1017.2hPa ESE 1.0mph /  1.6km/h 3.0mph /  4.8km/h 87% 0.00in /  0mm
01:19 40.5 °F /  4.7 °C 36.9 °F /  2.7 °C 30.05in /  1017.5hPa Calm   2.0mph /  3.2km/h 87% 0.00in /  0mm
01:24 40.6 °F /  4.8 °C 37.0 °F /  2.8 °C 30.03in /  1016.8hPa Calm     87% 0.00in /  0mm
01:29 40.5 °F /  4.7 °C 36.9 °F /  2.7 °C 30.02in /  1016.5hPa Calm   3.0mph /  4.8km/h 87% 0.00in /  0mm
01:34 40.5 °F /  4.7 °C 36.9 °F /  2.7 °C 30.02in /  1016.5hPa ESE 1.0mph /  1.6km/h 3.0mph /  4.8km/h 87% 0.00in /  0mm
01:39 40.4 °F /  4.7 °C 36.8 °F /  2.7 °C 30.03in /  1016.8hPa SE 1.0mph /  1.6km/h 4.0mph /  6.4km/h 87% 0.00in /  0mm
01:44 40.5 °F /  4.7 °C 36.9 °F /  2.7 °C 30.03in /  1016.8hPa Calm   2.0mph /  3.2km/h 87% 0.00in /  0mm
01:49 40.4 °F /  4.7 °C 36.8 °F /  2.7 °C 30.03in /  1016.8hPa Calm     87% 0.00in /  0mm
01:54 40.2 °F /  4.6 °C 36.6 °F /  2.6 °C 30.02in /  1016.5hPa Calm     87% 0.00in /  0mm
01:59 40.3 °F /  4.6 °C 36.7 °F /  2.6 °C 30.02in /  1016.5hPa Calm     87% 0.00in /  0mm
02:04 40.2 °F /  4.6 °C 36.6 °F /  2.6 °C 30.01in /  1016.1hPa Calm   3.0mph /  4.8km/h 87% 0.00in /  0mm
02:09 40.1 °F /  4.5 °C 36.5 °F /  2.5 °C 30.01in /  1016.1hPa SE 1.0mph /  1.6km/h 3.0mph /  4.8km/h 87% 0.00in /  0mm
02:14 40.0 °F /  4.4 °C 36.4 °F /  2.4 °C 30.01in /  1016.1hPa Calm   3.0mph /  4.8km/h 87% 0.00in /  0mm
02:19 39.9 °F /  4.4 °C 36.6 °F /  2.6 °C 30.01in /  1016.1hPa Calm   3.0mph /  4.8km/h 88% 0.00in /  0mm
02:24 39.6 °F /  4.2 °C 36.3 °F /  2.4 °C 30.01in /  1016.1hPa Calm     88% 0.00in /  0mm
02:29 39.4 °F /  4.1 °C 36.4 °F /  2.4 °C 30.01in /  1016.1hPa Calm     89% 0.00in /  0mm
02:34 39.3 °F /  4.1 °C 36.0 °F /  2.2 °C 30.00in /  1015.8hPa Calm     88% 0.00in /  0mm
02:39 39.1 °F /  3.9 °C 36.1 °F /  2.3 °C 30.00in /  1015.8hPa Calm     89% 0.00in /  0mm
02:44 38.9 °F /  3.8 °C 35.9 °F /  2.2 °C 30.01in /  1016.1hPa Calm     89% 0.00in /  0mm
02:49 38.8 °F /  3.8 °C 35.8 °F /  2.1 °C 30.01in /  1016.1hPa Calm     89% 0.00in /  0mm
02:54 38.7 °F /  3.7 °C 36.0 °F /  2.2 °C 30.00in /  1015.8hPa Calm     90% 0.00in /  0mm
02:59 39.0 °F /  3.9 °C 36.3 °F /  2.4 °C 29.99in /  1015.5hPa Calm     90% 0.00in /  0mm
03:04 39.3 °F /  4.1 °C 36.6 °F /  2.6 °C 30.00in /  1015.8hPa Calm     90% 0.00in /  0mm
03:09 39.5 °F /  4.2 °C 36.8 °F /  2.7 °C 30.00in /  1015.8hPa Calm     90% 0.00in /  0mm
03:14 39.8 °F /  4.3 °C 36.8 °F /  2.7 °C 30.00in /  1015.8hPa Calm     89% 0.00in /  0mm
03:19 40.0 °F /  4.4 °C 37.0 °F /  2.8 °C 30.00in /  1015.8hPa Calm     89% 0.00in /  0mm
03:24 40.2 °F /  4.6 °C 37.2 °F /  2.9 °C 29.99in /  1015.5hPa Calm     89% 0.00in /  0mm
03:29 40.2 °F /  4.6 °C 36.9 °F /  2.7 °C 29.99in /  1015.5hPa Calm     88% 0.00in /  0mm
03:34 40.3 °F /  4.6 °C 37.0 °F /  2.8 °C 29.99in /  1015.5hPa Calm     88% 0.00in /  0mm
03:39 40.5 °F /  4.7 °C 37.2 °F /  2.9 °C 29.99in /  1015.5hPa Calm     88% 0.00in /  0mm
03:44 40.6 °F /  4.8 °C 37.3 °F /  2.9 °C 29.98in /  1015.1hPa Calm     88% 0.00in /  0mm
03:49 40.6 °F /  4.8 °C 37.3 °F /  2.9 °C 29.98in /  1015.1hPa Calm     88% 0.00in /  0mm
03:54 40.7 °F /  4.8 °C 37.4 °F /  3 °C 29.98in /  1015.1hPa Calm     88% 0.00in /  0mm
03:59 40.7 °F /  4.8 °C 37.4 °F /  3 °C 29.97in /  1014.8hPa Calm     88% 0.00in /  0mm
04:04 40.8 °F /  4.9 °C 37.5 °F /  3.1 °C 29.97in /  1014.8hPa Calm     88% 0.00in /  0mm
04:09 40.9 °F /  4.9 °C 37.6 °F /  3.1 °C 29.97in /  1014.8hPa Calm     88% 0.00in /  0mm
04:14 41.1 °F /  5.1 °C 37.5 °F /  3.1 °C 29.97in /  1014.8hPa Calm     87% 0.00in /  0mm
04:19 41.1 °F /  5.1 °C 37.5 °F /  3.1 °C 29.97in /  1014.8hPa Calm     87% 0.00in /  0mm
04:24 41.2 °F /  5.1 °C 37.6 °F /  3.1 °C 29.96in /  1014.4hPa Calm     87% 0.00in /  0mm
04:29 41.2 °F /  5.1 °C 37.6 °F /  3.1 °C 29.96in /  1014.4hPa Calm     87% 0.00in /  0mm
04:34 41.3 °F /  5.2 °C 37.7 °F /  3.2 °C 29.95in /  1014.1hPa Calm     87% 0.00in /  0mm
04:39 41.2 °F /  5.1 °C 37.9 °F /  3.3 °C 29.95in /  1014.1hPa Calm     88% 0.00in /  0mm
04:44 41.2 °F /  5.1 °C 37.9 °F /  3.3 °C 29.95in /  1014.1hPa Calm     88% 0.00in /  0mm
04:49 41.1 °F /  5.1 °C 38.1 °F /  3.4 °C 29.94in /  1013.8hPa Calm     89% 0.00in /  0mm
04:54 41.0 °F /  5 °C 38.0 °F /  3.3 °C 29.94in /  1013.8hPa Calm     89% 0.00in /  0mm
04:59 41.0 °F /  5 °C 38.0 °F /  3.3 °C 29.94in /  1013.8hPa Calm     89% 0.00in /  0mm
05:04 41.0 °F /  5 °C 38.0 °F /  3.3 °C 29.94in /  1013.8hPa Calm     89% 0.00in /  0mm
05:09 41.0 °F /  5 °C 38.0 °F /  3.3 °C 29.93in /  1013.4hPa Calm     89% 0.00in /  0mm
05:14 41.0 °F /  5 °C 38.0 °F /  3.3 °C 29.93in /  1013.4hPa Calm     89% 0.00in /  0mm
05:19 41.1 °F /  5.1 °C 38.1 °F /  3.4 °C 29.93in /  1013.4hPa Calm     89% 0.00in /  0mm
05:24 41.2 °F /  5.1 °C 38.2 °F /  3.4 °C 29.93in /  1013.4hPa Calm     89% 0.00in /  0mm
05:29 41.3 °F /  5.2 °C 38.3 °F /  3.5 °C 29.93in /  1013.4hPa Calm     89% 0.00in /  0mm
05:34 41.3 °F /  5.2 °C 38.3 °F /  3.5 °C 29.92in /  1013.1hPa Calm     89% 0.00in /  0mm
05:39 41.4 °F /  5.2 °C 38.4 °F /  3.6 °C 29.92in /  1013.1hPa Calm     89% 0.00in /  0mm
05:44 41.5 °F /  5.3 °C 38.5 °F /  3.6 °C 29.92in /  1013.1hPa Calm     89% 0.00in /  0mm
05:49 41.5 °F /  5.3 °C 38.5 °F /  3.6 °C 29.92in /  1013.1hPa Calm     89% 0.00in /  0mm
05:54 41.5 °F /  5.3 °C 38.5 °F /  3.6 °C 29.92in /  1013.1hPa Calm     89% 0.00in /  0mm
05:59 41.5 °F /  5.3 °C 38.5 °F /  3.6 °C 29.91in /  1012.8hPa Calm     89% 0.00in /  0mm
06:04 41.4 °F /  5.2 °C 38.4 °F /  3.6 °C 29.91in /  1012.8hPa Calm     89% 0.00in /  0mm
06:09 41.4 °F /  5.2 °C 38.4 °F /  3.6 °C 29.91in /  1012.8hPa Calm     89% 0.00in /  0mm
06:14 41.3 °F /  5.2 °C 38.3 °F /  3.5 °C 29.91in /  1012.8hPa Calm     89% 0.00in /  0mm
06:19 41.3 °F /  5.2 °C 38.3 °F /  3.5 °C 29.90in /  1012.4hPa Calm     89% 0.00in /  0mm
06:24 41.5 °F /  5.3 °C 38.5 °F /  3.6 °C 29.90in /  1012.4hPa Calm     89% 0.00in /  0mm
06:29 41.6 °F /  5.3 °C 38.6 °F /  3.7 °C 29.90in /  1012.4hPa East 1.0mph /  1.6km/h 3.0mph /  4.8km/h 89% 0.00in /  0mm
06:34 41.7 °F /  5.4 °C 38.7 °F /  3.7 °C 29.90in /  1012.4hPa Calm   3.0mph /  4.8km/h 89% 0.00in /  0mm
06:39 41.8 °F /  5.4 °C 38.5 °F /  3.6 °C 29.89in /  1012.1hPa East 2.0mph /  3.2km/h 5.0mph /  8km/h 88% 0.00in /  0mm
06:44 41.9 °F /  5.5 °C 38.6 °F /  3.7 °C 29.89in /  1012.1hPa East 1.0mph /  1.6km/h 5.0mph /  8km/h 88% 0.00in /  0mm
06:49 41.9 °F /  5.5 °C 38.6 °F /  3.7 °C 29.89in /  1012.1hPa East 2.0mph /  3.2km/h 5.0mph /  8km/h 88% 0.00in /  0mm
06:54 42.0 °F /  5.6 °C 38.7 °F /  3.7 °C 29.88in /  1011.7hPa ENE 2.0mph /  3.2km/h 5.0mph /  8km/h 88% 0.00in /  0mm
06:59 42.0 °F /  5.6 °C 38.7 °F /  3.7 °C 29.88in /  1011.7hPa East 2.0mph /  3.2km/h 3.0mph /  4.8km/h 88% 0.00in /  0mm
07:04 42.0 °F /  5.6 °C 38.7 °F /  3.7 °C 29.88in /  1011.7hPa East 2.0mph /  3.2km/h 3.0mph /  4.8km/h 88% 0.00in /  0mm
07:09 41.9 °F /  5.5 °C 38.6 °F /  3.7 °C 29.88in /  1011.7hPa East 1.0mph /  1.6km/h 4.0mph /  6.4km/h 88% 0.00in /  0mm
07:14 41.9 °F /  5.5 °C 38.6 °F /  3.7 °C 29.87in /  1011.4hPa East 1.0mph /  1.6km/h 4.0mph /  6.4km/h 88% 0.00in /  0mm
07:19 41.9 °F /  5.5 °C 38.6 °F /  3.7 °C 29.87in /  1011.4hPa East 1.0mph /  1.6km/h 3.0mph /  4.8km/h 88% 0.00in /  0mm
07:24 42.0 °F /  5.6 °C 38.7 °F /  3.7 °C 29.87in /  1011.4hPa East 1.0mph /  1.6km/h 3.0mph /  4.8km/h 88% 0.00in /  0mm
07:29 42.0 °F /  5.6 °C 38.7 °F /  3.7 °C 29.86in /  1011.1hPa East 2.0mph /  3.2km/h 5.0mph /  8km/h 88% 0.00in /  0mm
07:34 42.2 °F /  5.7 °C 38.9 °F /  3.8 °C 29.86in /  1011.1hPa East 1.0mph /  1.6km/h 5.0mph /  8km/h 88% 0.00in /  0mm
07:39 42.2 °F /  5.7 °C 38.9 °F /  3.8 °C 29.86in /  1011.1hPa Calm   1.0mph /  1.6km/h 88% 0.00in /  0mm
07:44 42.2 °F /  5.7 °C 38.6 °F /  3.7 °C 29.86in /  1011.1hPa Calm     87% 0.00in /  0mm
07:49 42.4 °F /  5.8 °C 38.8 °F /  3.8 °C 29.85in /  1010.7hPa ESE 1.0mph /  1.6km/h 5.0mph /  8km/h 87% 0.00in /  0mm
07:54 42.3 °F /  5.7 °C 38.7 °F /  3.7 °C 29.85in /  1010.7hPa East 2.0mph /  3.2km/h 4.0mph /  6.4km/h 87% 0.00in /  0mm
07:59 42.5 °F /  5.8 °C 38.9 °F /  3.8 °C 29.85in /  1010.7hPa East 1.0mph /  1.6km/h 5.0mph /  8km/h 87% 0.00in /  0mm
08:04 42.5 °F /  5.8 °C 38.9 °F /  3.8 °C 29.84in /  1010.4hPa East 2.0mph /  3.2km/h 6.0mph /  9.7km/h 87% 0.00in /  0mm
08:09 42.6 °F /  5.9 °C 39.0 °F /  3.9 °C 29.84in /  1010.4hPa East 1.0mph /  1.6km/h 6.0mph /  9.7km/h 87% 0.00in /  0mm
08:14 42.7 °F /  5.9 °C 39.1 °F /  3.9 °C 29.84in /  1010.4hPa ESE 2.0mph /  3.2km/h 7.0mph /  11.3km/h 87% 0.00in /  0mm
08:19 42.8 °F /  6 °C 38.9 °F /  3.8 °C 29.83in /  1010hPa East 2.0mph /  3.2km/h 7.0mph /  11.3km/h 86% 0.00in /  0mm
08:24 42.9 °F /  6.1 °C 39.0 °F /  3.9 °C 29.83in /  1010hPa SSE 1.0mph /  1.6km/h 6.0mph /  9.7km/h 86% 0.00in /  0mm
08:29 42.9 °F /  6.1 °C 39.0 °F /  3.9 °C 29.83in /  1010hPa East 1.0mph /  1.6km/h 6.0mph /  9.7km/h 86% 0.00in /  0mm
08:34 43.0 °F /  6.1 °C 39.1 °F /  3.9 °C 29.83in /  1010hPa East 1.0mph /  1.6km/h 5.0mph /  8km/h 86% 0.00in /  0mm
08:39 43.0 °F /  6.1 °C 39.1 °F /  3.9 °C 29.83in /  1010hPa East 1.0mph /  1.6km/h 5.0mph /  8km/h 86% 0.00in /  0mm
08:44 43.1 °F /  6.2 °C 39.2 °F /  4 °C 29.83in /  1010hPa ENE 3.0mph /  4.8km/h 4.0mph /  6.4km/h 86% 0.00in /  0mm
08:49 43.0 °F /  6.1 °C 39.1 °F /  3.9 °C 29.82in /  1009.7hPa East 1.0mph /  1.6km/h 5.0mph /  8km/h 86% 0.00in /  0mm
08:54 43.1 °F /  6.2 °C 39.2 °F /  4 °C 29.82in /  1009.7hPa East 2.0mph /  3.2km/h 6.0mph /  9.7km/h 86% 0.00in /  0mm
08:59 43.1 °F /  6.2 °C 39.2 °F /  4 °C 29.82in /  1009.7hPa East 2.0mph /  3.2km/h 5.0mph /  8km/h 86% 0.00in /  0mm
09:04 43.2 °F /  6.2 °C 39.3 °F /  4.1 °C 29.82in /  1009.7hPa Calm   5.0mph /  8km/h 86% 0.00in /  0mm
09:09 43.2 °F /  6.2 °C 39.3 °F /  4.1 °C 29.82in /  1009.7hPa Calm   3.0mph /  4.8km/h 86% 0.00in /  0mm
09:14 43.1 °F /  6.2 °C 39.5 °F /  4.2 °C 29.81in /  1009.4hPa ESE 1.0mph /  1.6km/h 3.0mph /  4.8km/h 87% 0.00in /  0mm
09:19 43.0 °F /  6.1 °C 39.4 °F /  4.1 °C 29.81in /  1009.4hPa ESE 1.0mph /  1.6km/h 3.0mph /  4.8km/h 87% 0.00in /  0mm
09:24 43.0 °F /  6.1 °C 39.4 °F /  4.1 °C 29.81in /  1009.4hPa ESE 1.0mph /  1.6km/h 7.0mph /  11.3km/h 87% 0.00in /  0mm
09:29 43.0 °F /  6.1 °C 39.7 °F /  4.3 °C 29.81in /  1009.4hPa ESE 2.0mph /  3.2km/h 7.0mph /  11.3km/h 88% 0.00in /  0mm
09:34 43.0 °F /  6.1 °C 39.7 °F /  4.3 °C 29.81in /  1009.4hPa ESE 2.0mph /  3.2km/h 7.0mph /  11.3km/h 88% 0.00in /  0mm
09:39 43.0 °F /  6.1 °C 39.7 °F /  4.3 °C 29.81in /  1009.4hPa SSE 1.0mph /  1.6km/h 4.0mph /  6.4km/h 88% 0.00in /  0mm
09:44 43.0 °F /  6.1 °C 39.7 °F /  4.3 °C 29.80in /  1009hPa SE 1.0mph /  1.6km/h 4.0mph /  6.4km/h 88% 0.00in /  0mm
09:49 43.0 °F /  6.1 °C 39.7 °F /  4.3 °C 29.80in /  1009hPa Calm   4.0mph /  6.4km/h 88% 0.00in /  0mm
09:54 43.1 °F /  6.2 °C 39.8 °F /  4.3 °C 29.80in /  1009hPa Calm   5.0mph /  8km/h 88% 0.00in /  0mm
09:59 43.0 °F /  6.1 °C 39.7 °F /  4.3 °C 29.80in /  1009hPa SE 3.0mph /  4.8km/h 5.0mph /  8km/h 88% 0.00in /  0mm
10:04 43.1 °F /  6.2 °C 39.8 °F /  4.3 °C 29.79in /  1008.7hPa SE 2.0mph /  3.2km/h 5.0mph /  8km/h 88% 0.00in /  0mm
10:09 43.2 °F /  6.2 °C 39.9 °F /  4.4 °C 29.79in /  1008.7hPa SE 2.0mph /  3.2km/h 4.0mph /  6.4km/h 88% 0.00in /  0mm
10:14 43.2 °F /  6.2 °C 40.2 °F /  4.6 °C 29.79in /  1008.7hPa SE 2.0mph /  3.2km/h 4.0mph /  6.4km/h 89% 0.01in /  0.25mm
10:19 43.2 °F /  6.2 °C 40.2 °F /  4.6 °C 29.79in /  1008.7hPa SE 1.0mph /  1.6km/h 4.0mph /  6.4km/h 89% 0.01in /  0.25mm
10:24 43.1 °F /  6.2 °C 40.1 °F /  4.5 °C 29.78in /  1008.4hPa SE 1.0mph /  1.6km/h 4.0mph /  6.4km/h 89% 0.01in /  0.25mm
10:29 43.1 °F /  6.2 °C 40.1 °F /  4.5 °C 29.78in /  1008.4hPa SE 1.0mph /  1.6km/h 4.0mph /  6.4km/h 89% 0.02in /  0.51mm
10:34 43.1 °F /  6.2 °C 40.4 °F /  4.7 °C 29.78in /  1008.4hPa SE 1.0mph /  1.6km/h 4.0mph /  6.4km/h 90% 0.02in /  0.51mm
10:39 43.0 °F /  6.1 °C 40.0 °F /  4.4 °C 29.77in /  1008hPa SE 1.0mph /  1.6km/h 4.0mph /  6.4km/h 89% 0.03in /  0.76mm
10:44 43.0 °F /  6.1 °C 40.3 °F /  4.6 °C 29.77in /  1008hPa ESE 1.0mph /  1.6km/h 5.0mph /  8km/h 90% 0.03in /  0.76mm
10:49 43.1 °F /  6.2 °C 40.4 °F /  4.7 °C 29.77in /  1008hPa ESE 1.0mph /  1.6km/h 5.0mph /  8km/h 90% 0.04in /  1.02mm
10:54 43.0 °F /  6.1 °C 40.3 °F /  4.6 °C 29.76in /  1007.7hPa ESE 3.0mph /  4.8km/h 4.0mph /  6.4km/h 90% 0.05in /  1.27mm
10:59 43.1 °F /  6.2 °C 40.7 °F /  4.8 °C 29.76in /  1007.7hPa ESE 1.0mph /  1.6km/h 3.0mph /  4.8km/h 91% 0.05in /  1.27mm
11:04 43.0 °F /  6.1 °C 40.6 °F /  4.8 °C 29.76in /  1007.7hPa ESE 1.0mph /  1.6km/h 3.0mph /  4.8km/h 91% 0.06in /  1.52mm
11:09 43.0 °F /  6.1 °C 40.6 °F /  4.8 °C 29.75in /  1007.3hPa ESE 1.0mph /  1.6km/h 5.0mph /  8km/h 91% 0.06in /  1.52mm
11:14 43.0 °F /  6.1 °C 40.6 °F /  4.8 °C 29.75in /  1007.3hPa Calm   2.0mph /  3.2km/h 91% 0.06in /  1.52mm
11:19 43.0 °F /  6.1 °C 40.6 °F /  4.8 °C 29.75in /  1007.3hPa Calm   2.0mph /  3.2km/h 91% 0.07in /  1.78mm
11:24 42.9 °F /  6.1 °C 40.5 °F /  4.7 °C 29.74in /  1007hPa ESE 1.0mph /  1.6km/h 2.0mph /  3.2km/h 91% 0.08in /  2.03mm
11:29 42.9 °F /  6.1 °C 40.7 °F /  4.8 °C 29.74in /  1007hPa ESE 1.0mph /  1.6km/h 3.0mph /  4.8km/h 92% 0.08in /  2.03mm
11:34 42.9 °F /  6.1 °C 40.7 °F /  4.8 °C 29.74in /  1007hPa ESE 1.0mph /  1.6km/h 3.0mph /  4.8km/h 92% 0.09in /  2.29mm
11:39 43.0 °F /  6.1 °C 40.8 °F /  4.9 °C 29.74in /  1007hPa Calm   2.0mph /  3.2km/h 92% 0.10in /  2.54mm
11:44 42.9 °F /  6.1 °C 40.7 °F /  4.8 °C 29.73in /  1006.7hPa Calm     92% 0.11in /  2.79mm
11:49 42.9 °F /  6.1 °C 40.7 °F /  4.8 °C 29.73in /  1006.7hPa Calm     92% 0.10in /  2.54mm
11:54 43.0 °F /  6.1 °C 40.8 °F /  4.9 °C 29.73in /  1006.7hPa Calm     92% 0.10in /  2.54mm
11:59 43.1 °F /  6.2 °C 40.9 °F /  4.9 °C 29.72in /  1006.3hPa Calm     92% 0.12in /  3.05mm
12:04 43.0 °F /  6.1 °C 40.8 °F /  4.9 °C 29.72in /  1006.3hPa Calm     92% 0.12in /  3.05mm
12:09 42.9 °F /  6.1 °C 40.7 °F /  4.8 °C 29.72in /  1006.3hPa Calm     92% 0.12in /  3.05mm
12:14 42.9 °F /  6.1 °C 40.7 °F /  4.8 °C 29.71in /  1006hPa Calm     92% 0.12in /  3.05mm
12:19 43.0 °F /  6.1 °C 41.1 °F /  5.1 °C 29.71in /  1006hPa Calm     93% 0.11in /  2.79mm
12:24 43.0 °F /  6.1 °C 41.1 °F /  5.1 °C 29.70in /  1005.6hPa Calm     93% 0.11in /  2.79mm
12:29 43.0 °F /  6.1 °C 41.1 °F /  5.1 °C 29.70in /  1005.6hPa Calm     93% 0.11in /  2.79mm
12:34 43.1 °F /  6.2 °C 41.2 °F /  5.1 °C 29.70in /  1005.6hPa Calm     93% 0.10in /  2.54mm
12:39 43.0 °F /  6.1 °C 41.1 °F /  5.1 °C 29.69in /  1005.3hPa Calm     93% 0.09in /  2.29mm
12:44 43.0 °F /  6.1 °C 41.1 °F /  5.1 °C 29.69in /  1005.3hPa Calm     93% 0.09in /  2.29mm
12:49 43.0 °F /  6.1 °C 41.1 °F /  5.1 °C 29.69in /  1005.3hPa ENE 3.0mph /  4.8km/h 3.0mph /  4.8km/h 93% 0.09in /  2.29mm
12:54 43.0 °F /  6.1 °C 41.1 °F /  5.1 °C 29.68in /  1005hPa ENE 2.0mph /  3.2km/h 3.0mph /  4.8km/h 93% 0.09in /  2.29mm
12:59 43.0 °F /  6.1 °C 41.1 °F /  5.1 °C 29.68in /  1005hPa ENE 2.0mph /  3.2km/h 3.0mph /  4.8km/h 93% 0.07in /  1.78mm
13:04 43.0 °F /  6.1 °C 41.1 °F /  5.1 °C 29.68in /  1005hPa ENE 2.0mph /  3.2km/h 4.0mph /  6.4km/h 93% 0.07in /  1.78mm
13:09 43.0 °F /  6.1 °C 41.4 °F /  5.2 °C 29.67in /  1004.6hPa NE 2.0mph /  3.2km/h 3.0mph /  4.8km/h 94% 0.07in /  1.78mm
13:14 43.0 °F /  6.1 °C 41.4 °F /  5.2 °C 29.67in /  1004.6hPa Calm   5.0mph /  8km/h 94% 0.06in /  1.52mm
13:19 43.1 °F /  6.2 °C 41.5 °F /  5.3 °C 29.67in /  1004.6hPa NE 2.0mph /  3.2km/h 5.0mph /  8km/h 94% 0.07in /  1.78mm
13:24 43.1 °F /  6.2 °C 41.5 °F /  5.3 °C 29.66in /  1004.3hPa NE 2.0mph /  3.2km/h 4.0mph /  6.4km/h 94% 0.06in /  1.52mm
13:29 43.1 °F /  6.2 °C 41.5 °F /  5.3 °C 29.66in /  1004.3hPa NE 3.0mph /  4.8km/h 4.0mph /  6.4km/h 94% 0.06in /  1.52mm
13:34 43.1 °F /  6.2 °C 41.5 °F /  5.3 °C 29.66in /  1004.3hPa NE 2.0mph /  3.2km/h 4.0mph /  6.4km/h 94% 0.06in /  1.52mm
13:39 43.1 °F /  6.2 °C 41.5 °F /  5.3 °C 29.65in /  1003.9hPa NE 2.0mph /  3.2km/h 4.0mph /  6.4km/h 94% 0.06in /  1.52mm
13:44 43.2 °F /  6.2 °C 41.6 °F /  5.3 °C 29.65in /  1003.9hPa NE 2.0mph /  3.2km/h 4.0mph /  6.4km/h 94% 0.05in /  1.27mm
13:49 43.2 °F /  6.2 °C 41.6 °F /  5.3 °C 29.65in /  1003.9hPa NE 2.0mph /  3.2km/h 4.0mph /  6.4km/h 94% 0.06in /  1.52mm
13:54 43.3 °F /  6.3 °C 41.7 °F /  5.4 °C 29.65in /  1003.9hPa NE 2.0mph /  3.2km/h 3.0mph /  4.8km/h 94% 0.05in /  1.27mm
13:59 43.3 °F /  6.3 °C 41.7 °F /  5.4 °C 29.64in /  1003.6hPa NE 1.0mph /  1.6km/h 4.0mph /  6.4km/h 94% 0.05in /  1.27mm
14:04 43.2 °F /  6.2 °C 41.6 °F /  5.3 °C 29.64in /  1003.6hPa ENE 2.0mph /  3.2km/h 5.0mph /  8km/h 94% 0.04in /  1.02mm
14:09 43.3 °F /  6.3 °C 41.7 °F /  5.4 °C 29.64in /  1003.6hPa East 2.0mph /  3.2km/h 3.0mph /  4.8km/h 94% 0.05in /  1.27mm
14:14 43.2 °F /  6.2 °C 41.6 °F /  5.3 °C 29.63in /  1003.3hPa NE 2.0mph /  3.2km/h 4.0mph /  6.4km/h 94% 0.05in /  1.27mm
14:19 43.3 °F /  6.3 °C 41.7 °F /  5.4 °C 29.63in /  1003.3hPa NE 3.0mph /  4.8km/h 4.0mph /  6.4km/h 94% 0.04in /  1.02mm
14:24 43.3 °F /  6.3 °C 41.7 °F /  5.4 °C 29.62in /  1002.9hPa NE 2.0mph /  3.2km/h 4.0mph /  6.4km/h 94% 0.04in /  1.02mm
14:29 43.2 °F /  6.2 °C 41.6 °F /  5.3 °C 29.62in /  1002.9hPa NE 2.0mph /  3.2km/h 4.0mph /  6.4km/h 94% 0.03in /  0.76mm
14:34 43.2 °F /  6.2 °C 41.6 °F /  5.3 °C 29.62in /  1002.9hPa NE 3.0mph /  4.8km/h 3.0mph /  4.8km/h 94% 0.04in /  1.02mm
14:39 43.2 °F /  6.2 °C 41.6 °F /  5.3 °C 29.62in /  1002.9hPa NE 2.0mph /  3.2km/h 3.0mph /  4.8km/h 94% 0.03in /  0.76mm
14:44 43.2 °F /  6.2 °C 41.6 °F /  5.3 °C 29.62in /  1002.9hPa NE 1.0mph /  1.6km/h 3.0mph /  4.8km/h 94% 0.03in /  0.76mm
14:49 43.2 °F /  6.2 °C 41.6 °F /  5.3 °C 29.61in /  1002.6hPa NE 1.0mph /  1.6km/h 3.0mph /  4.8km/h 94% 0.02in /  0.51mm
14:54 43.2 °F /  6.2 °C 41.6 °F /  5.3 °C 29.61in /  1002.6hPa NE 2.0mph /  3.2km/h 3.0mph /  4.8km/h 94% 0.02in /  0.51mm
14:59 43.2 °F /  6.2 °C 41.6 °F /  5.3 °C 29.61in /  1002.6hPa NE 1.0mph /  1.6km/h 3.0mph /  4.8km/h 94% 0.02in /  0.51mm
15:04 43.2 °F /  6.2 °C 41.6 °F /  5.3 °C 29.61in /  1002.6hPa NE 1.0mph /  1.6km/h 3.0mph /  4.8km/h 94% 0.03in /  0.76mm
15:09 43.2 °F /  6.2 °C 41.6 °F /  5.3 °C 29.61in /  1002.6hPa Calm   3.0mph /  4.8km/h 94% 0.02in /  0.51mm
15:14 43.2 °F /  6.2 °C 41.6 °F /  5.3 °C 29.60in /  1002.3hPa NE 1.0mph /  1.6km/h 3.0mph /  4.8km/h 94% 0.02in /  0.51mm
15:19 43.2 °F /  6.2 °C 41.6 °F /  5.3 °C 29.60in /  1002.3hPa Calm     94% 0.03in /  0.76mm
15:24 43.2 °F /  6.2 °C 41.6 °F /  5.3 °C 29.60in /  1002.3hPa East 2.0mph /  3.2km/h 3.0mph /  4.8km/h 94% 0.03in /  0.76mm
15:29 43.2 °F /  6.2 °C 41.6 °F /  5.3 °C 29.60in /  1002.3hPa Calm   3.0mph /  4.8km/h 94% 0.04in /  1.02mm
15:34 43.2 °F /  6.2 °C 41.6 °F /  5.3 °C 29.60in /  1002.3hPa ESE 1.0mph /  1.6km/h 3.0mph /  4.8km/h 94% 0.03in /  0.76mm
15:39 43.2 °F /  6.2 °C 41.6 °F /  5.3 °C 29.59in /  1001.9hPa ESE 1.0mph /  1.6km/h 2.0mph /  3.2km/h 94% 0.03in /  0.76mm
15:44 43.2 °F /  6.2 °C 41.6 °F /  5.3 °C 29.59in /  1001.9hPa Calm   5.0mph /  8km/h 94% 0.04in /  1.02mm
15:49 43.1 °F /  6.2 °C 41.5 °F /  5.3 °C 29.59in /  1001.9hPa Calm   5.0mph /  8km/h 94% 0.04in /  1.02mm
15:54 43.1 °F /  6.2 °C 41.5 °F /  5.3 °C 29.59in /  1001.9hPa Calm   3.0mph /  4.8km/h 94% 0.04in /  1.02mm
15:59 43.0 °F /  6.1 °C 41.4 °F /  5.2 °C 29.59in /  1001.9hPa Calm   3.0mph /  4.8km/h 94% 0.05in /  1.27mm
16:04 42.9 °F /  6.1 °C 41.3 °F /  5.2 °C 29.59in /  1001.9hPa Calm   3.0mph /  4.8km/h 94% 0.05in /  1.27mm
16:09 42.9 °F /  6.1 °C 41.3 °F /  5.2 °C 29.58in /  1001.6hPa SE 2.0mph /  3.2km/h 4.0mph /  6.4km/h 94% 0.05in /  1.27mm
16:14 42.9 °F /  6.1 °C 41.3 °F /  5.2 °C 29.58in /  1001.6hPa ESE 2.0mph /  3.2km/h 3.0mph /  4.8km/h 94% 0.06in /  1.52mm
16:19 42.8 °F /  6 °C 41.2 °F /  5.1 °C 29.58in /  1001.6hPa ESE 1.0mph /  1.6km/h 3.0mph /  4.8km/h 94% 0.05in /  1.27mm
16:24 42.8 °F /  6 °C 41.2 °F /  5.1 °C 29.58in /  1001.6hPa Calm     94% 0.06in /  1.52mm
16:29 42.8 °F /  6 °C 41.2 °F /  5.1 °C 29.58in /  1001.6hPa Calm   2.0mph /  3.2km/h 94% 0.05in /  1.27mm
16:34 42.7 °F /  5.9 °C 41.1 °F /  5.1 °C 29.58in /  1001.6hPa Calm     94% 0.06in /  1.52mm
16:39 42.7 °F /  5.9 °C 41.1 °F /  5.1 °C 29.57in /  1001.2hPa Calm     94% 0.07in /  1.78mm
16:44 42.6 °F /  5.9 °C 41.0 °F /  5 °C 29.57in /  1001.2hPa Calm     94% 0.06in /  1.52mm
16:49 42.5 °F /  5.8 °C 40.9 °F /  4.9 °C 29.57in /  1001.2hPa Calm     94% 0.07in /  1.78mm
16:54 42.5 °F /  5.8 °C 40.9 °F /  4.9 °C 29.57in /  1001.2hPa Calm     94% 0.08in /  2.03mm
16:59 42.5 °F /  5.8 °C 40.9 °F /  4.9 °C 29.57in /  1001.2hPa Calm     94% 0.07in /  1.78mm
17:04 42.5 °F /  5.8 °C 40.9 °F /  4.9 °C 29.57in /  1001.2hPa Calm     94% 0.07in /  1.78mm
17:09 42.4 °F /  5.8 °C 40.8 °F /  4.9 °C 29.58in /  1001.6hPa Calm     94% 0.07in /  1.78mm
17:14 42.3 °F /  5.7 °C 40.7 °F /  4.8 °C 29.58in /  1001.6hPa Calm     94% 0.07in /  1.78mm
17:19 42.2 °F /  5.7 °C 40.6 °F /  4.8 °C 29.57in /  1001.2hPa Calm     94% 0.07in /  1.78mm
17:24 42.3 °F /  5.7 °C 40.7 °F /  4.8 °C 29.57in /  1001.2hPa Calm     94% 0.06in /  1.52mm
17:29 42.3 °F /  5.7 °C 40.7 °F /  4.8 °C 29.57in /  1001.2hPa Calm     94% 0.06in /  1.52mm
17:34 42.3 °F /  5.7 °C 40.7 °F /  4.8 °C 29.57in /  1001.2hPa Calm     94% 0.05in /  1.27mm
17:39 42.3 °F /  5.7 °C 40.7 °F /  4.8 °C 29.56in /  1000.9hPa Calm     94% 0.04in /  1.02mm
17:44 42.2 °F /  5.7 °C 40.6 °F /  4.8 °C 29.56in /  1000.9hPa Calm     94% 0.04in /  1.02mm
17:49 42.2 °F /  5.7 °C 40.6 °F /  4.8 °C 29.56in /  1000.9hPa Calm     94% 0.03in /  0.76mm
17:54 42.2 °F /  5.7 °C 40.6 °F /  4.8 °C 29.56in /  1000.9hPa Calm   3.0mph /  4.8km/h 94% 0.02in /  0.51mm
17:59 42.2 °F /  5.7 °C 40.6 °F /  4.8 °C 29.56in /  1000.9hPa SSE 1.0mph /  1.6km/h 3.0mph /  4.8km/h 94% 0.03in /  0.76mm
18:04 42.2 °F /  5.7 °C 40.6 °F /  4.8 °C 29.55in /  1000.6hPa SSE 1.0mph /  1.6km/h 3.0mph /  4.8km/h 94% 0.02in /  0.51mm
18:09 42.2 °F /  5.7 °C 40.6 °F /  4.8 °C 29.55in /  1000.6hPa SSE 1.0mph /  1.6km/h 2.0mph /  3.2km/h 94% 0.02in /  0.51mm
18:14 42.1 °F /  5.6 °C 40.5 °F /  4.7 °C 29.55in /  1000.6hPa Calm   3.0mph /  4.8km/h 94% 0.01in /  0.25mm
18:19 42.0 °F /  5.6 °C 40.4 °F /  4.7 °C 29.54in /  1000.2hPa SSE 1.0mph /  1.6km/h 3.0mph /  4.8km/h 94% 0.01in /  0.25mm
18:24 42.0 °F /  5.6 °C 40.4 °F /  4.7 °C 29.54in /  1000.2hPa SSE 1.0mph /  1.6km/h 3.0mph /  4.8km/h 94% 0.01in /  0.25mm
18:29 42.0 °F /  5.6 °C 40.4 °F /  4.7 °C 29.54in /  1000.2hPa SSE 3.0mph /  4.8km/h 3.0mph /  4.8km/h 94% 0.01in /  0.25mm
18:34 42.0 °F /  5.6 °C 40.4 °F /  4.7 °C 29.54in /  1000.2hPa SSE 1.0mph /  1.6km/h 4.0mph /  6.4km/h 94% 0.01in /  0.25mm
18:39 41.9 °F /  5.5 °C 40.3 °F /  4.6 °C 29.54in /  1000.2hPa South 1.0mph /  1.6km/h 4.0mph /  6.4km/h 94% 0.01in /  0.25mm
18:44 41.9 °F /  5.5 °C 40.3 °F /  4.6 °C 29.54in /  1000.2hPa Calm   2.0mph /  3.2km/h 94% 0.01in /  0.25mm
18:49 41.8 °F /  5.4 °C 40.2 °F /  4.6 °C 29.54in /  1000.2hPa Calm   2.0mph /  3.2km/h 94% 0.01in /  0.25mm
18:54 41.9 °F /  5.5 °C 40.3 °F /  4.6 °C 29.53in /  999.9hPa Calm     94% 0.01in /  0.25mm
18:59 41.9 °F /  5.5 °C 40.3 °F /  4.6 °C 29.53in /  999.9hPa Calm   2.0mph /  3.2km/h 94% 0.00in /  0mm
19:04 41.9 °F /  5.5 °C 40.3 °F /  4.6 °C 29.53in /  999.9hPa South 1.0mph /  1.6km/h 3.0mph /  4.8km/h 94% 0.00in /  0mm
19:09 41.9 °F /  5.5 °C 40.3 °F /  4.6 °C 29.53in /  999.9hPa South 1.0mph /  1.6km/h 3.0mph /  4.8km/h 94% 0.00in /  0mm
19:14 41.9 °F /  5.5 °C 40.3 °F /  4.6 °C 29.53in /  999.9hPa South 2.0mph /  3.2km/h 3.0mph /  4.8km/h 94% 0.00in /  0mm
19:19 41.8 °F /  5.4 °C 40.2 °F /  4.6 °C 29.53in /  999.9hPa South 2.0mph /  3.2km/h 3.0mph /  4.8km/h 94% 0.00in /  0mm
19:24 41.9 °F /  5.5 °C 40.3 °F /  4.6 °C 29.53in /  999.9hPa South 2.0mph /  3.2km/h 2.0mph /  3.2km/h 94% 0.00in /  0mm
19:29 41.8 °F /  5.4 °C 40.2 °F /  4.6 °C 29.53in /  999.9hPa South 1.0mph /  1.6km/h 2.0mph /  3.2km/h 94% 0.00in /  0mm
19:34 41.8 °F /  5.4 °C 40.2 °F /  4.6 °C 29.52in /  999.5hPa South 1.0mph /  1.6km/h 3.0mph /  4.8km/h 94% 0.00in /  0mm
19:39 41.8 °F /  5.4 °C 40.2 °F /  4.6 °C 29.52in /  999.5hPa South 1.0mph /  1.6km/h 3.0mph /  4.8km/h 94% 0.00in /  0mm
19:44 41.8 °F /  5.4 °C 40.2 °F /  4.6 °C 29.52in /  999.5hPa Calm   3.0mph /  4.8km/h 94% 0.00in /  0mm
19:49 41.8 °F /  5.4 °C 40.2 °F /  4.6 °C 29.51in /  999.2hPa Calm     94% 0.00in /  0mm
19:54 41.7 °F /  5.4 °C 40.1 °F /  4.5 °C 29.51in /  999.2hPa SW 2.0mph /  3.2km/h 3.0mph /  4.8km/h 94% 0.00in /  0mm
19:59 41.7 °F /  5.4 °C 40.1 °F /  4.5 °C 29.51in /  999.2hPa SSW 2.0mph /  3.2km/h 4.0mph /  6.4km/h 94% 0.00in /  0mm
20:04 41.8 °F /  5.4 °C 40.2 °F /  4.6 °C 29.51in /  999.2hPa SSW 2.0mph /  3.2km/h 4.0mph /  6.4km/h 94% 0.00in /  0mm
20:09 41.8 °F /  5.4 °C 40.2 °F /  4.6 °C 29.51in /  999.2hPa SSW 2.0mph /  3.2km/h 4.0mph /  6.4km/h 94% 0.01in /  0.25mm
20:14 41.8 °F /  5.4 °C 40.2 °F /  4.6 °C 29.50in /  998.9hPa SW 2.0mph /  3.2km/h 4.0mph /  6.4km/h 94% 0.01in /  0.25mm
20:19 41.7 °F /  5.4 °C 40.1 °F /  4.5 °C 29.50in /  998.9hPa SW 2.0mph /  3.2km/h 5.0mph /  8km/h 94% 0.01in /  0.25mm
20:24 41.8 °F /  5.4 °C 40.2 °F /  4.6 °C 29.50in /  998.9hPa SW 2.0mph /  3.2km/h 5.0mph /  8km/h 94% 0.01in /  0.25mm
20:29 41.8 °F /  5.4 °C 40.2 °F /  4.6 °C 29.50in /  998.9hPa SSW 1.0mph /  1.6km/h 5.0mph /  8km/h 94% 0.01in /  0.25mm
20:34 41.7 °F /  5.4 °C 40.1 °F /  4.5 °C 29.49in /  998.5hPa SW 1.0mph /  1.6km/h 6.0mph /  9.7km/h 94% 0.02in /  0.51mm
20:39 41.7 °F /  5.4 °C 40.1 °F /  4.5 °C 29.49in /  998.5hPa SW 4.0mph /  6.4km/h 4.0mph /  6.4km/h 94% 0.02in /  0.51mm
20:44 41.6 °F /  5.3 °C 40.0 °F /  4.4 °C 29.49in /  998.5hPa SW 2.0mph /  3.2km/h 6.0mph /  9.7km/h 94% 0.02in /  0.51mm
20:49 41.6 °F /  5.3 °C 40.0 °F /  4.4 °C 29.49in /  998.5hPa SSW 2.0mph /  3.2km/h 4.0mph /  6.4km/h 94% 0.02in /  0.51mm
20:54 41.6 °F /  5.3 °C 40.0 °F /  4.4 °C 29.48in /  998.2hPa WSW 3.0mph /  4.8km/h 4.0mph /  6.4km/h 94% 0.02in /  0.51mm
20:59 41.6 °F /  5.3 °C 40.3 °F /  4.6 °C 29.49in /  998.5hPa SSW 3.0mph /  4.8km/h 5.0mph /  8km/h 95% 0.02in /  0.51mm
21:04 41.6 °F /  5.3 °C 40.3 °F /  4.6 °C 29.48in /  998.2hPa WSW 3.0mph /  4.8km/h 5.0mph /  8km/h 95% 0.02in /  0.51mm
21:09 41.6 °F /  5.3 °C 40.0 °F /  4.4 °C 29.48in /  998.2hPa WSW 4.0mph /  6.4km/h 5.0mph /  8km/h 94% 0.01in /  0.25mm
21:14 41.5 °F /  5.3 °C 39.9 °F /  4.4 °C 29.48in /  998.2hPa SW 3.0mph /  4.8km/h 5.0mph /  8km/h 94% 0.01in /  0.25mm
21:19 41.5 °F /  5.3 °C 39.9 °F /  4.4 °C 29.48in /  998.2hPa WSW 3.0mph /  4.8km/h 5.0mph /  8km/h 94% 0.02in /  0.51mm
21:24 41.4 °F /  5.2 °C 39.8 °F /  4.3 °C 29.48in /  998.2hPa WSW 3.0mph /  4.8km/h 6.0mph /  9.7km/h 94% 0.02in /  0.51mm
21:29 41.4 °F /  5.2 °C 39.8 °F /  4.3 °C 29.48in /  998.2hPa WSW 4.0mph /  6.4km/h 6.0mph /  9.7km/h 94% 0.02in /  0.51mm
21:34 41.3 °F /  5.2 °C 39.7 °F /  4.3 °C 29.48in /  998.2hPa SSW 4.0mph /  6.4km/h 7.0mph /  11.3km/h 94% 0.01in /  0.25mm
21:39 41.3 °F /  5.2 °C 39.7 °F /  4.3 °C 29.48in /  998.2hPa WSW 3.0mph /  4.8km/h 7.0mph /  11.3km/h 94% 0.02in /  0.51mm
21:44 41.3 °F /  5.2 °C 39.7 °F /  4.3 °C 29.47in /  997.9hPa WSW 3.0mph /  4.8km/h 6.0mph /  9.7km/h 94% 0.02in /  0.51mm
21:49 41.3 °F /  5.2 °C 39.7 °F /  4.3 °C 29.47in /  997.9hPa SW 5.0mph /  8km/h 6.0mph /  9.7km/h 94% 0.02in /  0.51mm
21:54 41.2 °F /  5.1 °C 39.9 °F /  4.4 °C 29.47in /  997.9hPa SW 5.0mph /  8km/h 7.0mph /  11.3km/h 95% 0.02in /  0.51mm
21:59 41.2 °F /  5.1 °C 39.9 °F /  4.4 °C 29.47in /  997.9hPa WSW 5.0mph /  8km/h 6.0mph /  9.7km/h 95% 0.02in /  0.51mm
22:04 41.2 °F /  5.1 °C 39.9 °F /  4.4 °C 29.47in /  997.9hPa SW 3.0mph /  4.8km/h 7.0mph /  11.3km/h 95% 0.02in /  0.51mm
22:09 41.2 °F /  5.1 °C 39.9 °F /  4.4 °C 29.47in /  997.9hPa SW 4.0mph /  6.4km/h 8.0mph /  12.9km/h 95% 0.02in /  0.51mm
22:14 41.1 °F /  5.1 °C 39.8 °F /  4.3 °C 29.47in /  997.9hPa SW 5.0mph /  8km/h 7.0mph /  11.3km/h 95% 0.03in /  0.76mm
22:19 41.1 °F /  5.1 °C 39.8 °F /  4.3 °C 29.47in /  997.9hPa WSW 3.0mph /  4.8km/h 10.0mph /  16.1km/h 95% 0.02in /  0.51mm
22:24 41.1 °F /  5.1 °C 39.8 °F /  4.3 °C 29.47in /  997.9hPa SW 3.0mph /  4.8km/h 6.0mph /  9.7km/h 95% 0.02in /  0.51mm
22:29 41.1 °F /  5.1 °C 39.8 °F /  4.3 °C 29.47in /  997.9hPa SW 4.0mph /  6.4km/h 9.0mph /  14.5km/h 95% 0.02in /  0.51mm
22:34 41.1 °F /  5.1 °C 39.8 °F /  4.3 °C 29.47in /  997.9hPa SW 4.0mph /  6.4km/h 9.0mph /  14.5km/h 95% 0.02in /  0.51mm
22:39 41.1 °F /  5.1 °C 39.8 °F /  4.3 °C 29.47in /  997.9hPa West 4.0mph /  6.4km/h 7.0mph /  11.3km/h 95% 0.01in /  0.25mm
22:44 41.0 °F /  5 °C 39.7 °F /  4.3 °C 29.47in /  997.9hPa SW 5.0mph /  8km/h 9.0mph /  14.5km/h 95% 0.01in /  0.25mm
22:49 41.0 °F /  5 °C 39.7 °F /  4.3 °C 29.47in /  997.9hPa WSW 5.0mph /  8km/h 7.0mph /  11.3km/h 95% 0.01in /  0.25mm
22:54 41.0 °F /  5 °C 39.7 °F /  4.3 °C 29.47in /  997.9hPa WSW 4.0mph /  6.4km/h 7.0mph /  11.3km/h 95% 0.01in /  0.25mm
22:59 41.0 °F /  5 °C 39.7 °F /  4.3 °C 29.47in /  997.9hPa WSW 3.0mph /  4.8km/h 7.0mph /  11.3km/h 95% 0.01in /  0.25mm
23:04 41.0 °F /  5 °C 39.7 °F /  4.3 °C 29.46in /  997.5hPa WNW 2.0mph /  3.2km/h 7.0mph /  11.3km/h 95% 0.01in /  0.25mm
23:09 41.0 °F /  5 °C 39.7 °F /  4.3 °C 29.46in /  997.5hPa WSW 4.0mph /  6.4km/h 7.0mph /  11.3km/h 95% 0.01in /  0.25mm
23:14 40.9 °F /  4.9 °C 39.6 °F /  4.2 °C 29.46in /  997.5hPa WSW 3.0mph /  4.8km/h 8.0mph /  12.9km/h 95% 0.00in /  0mm
23:19 40.9 °F /  4.9 °C 39.6 °F /  4.2 °C 29.46in /  997.5hPa WSW 2.0mph /  3.2km/h 8.0mph /  12.9km/h 95% 0.00in /  0mm
23:24 40.9 °F /  4.9 °C 39.6 °F /  4.2 °C 29.46in /  997.5hPa WSW 3.0mph /  4.8km/h 7.0mph /  11.3km/h 95% 0.00in /  0mm
23:29 40.8 °F /  4.9 °C 39.5 °F /  4.2 °C 29.46in /  997.5hPa WSW 4.0mph /  6.4km/h 8.0mph /  12.9km/h 95% 0.00in /  0mm
23:34 40.7 °F /  4.8 °C 39.4 °F /  4.1 °C 29.46in /  997.5hPa WSW 4.0mph /  6.4km/h 8.0mph /  12.9km/h 95% 0.00in /  0mm
23:39 40.6 °F /  4.8 °C 39.3 °F /  4.1 °C 29.45in /  997.2hPa WSW 6.0mph /  9.7km/h 7.0mph /  11.3km/h 95% 0.00in /  0mm
23:44 40.4 °F /  4.7 °C 39.1 °F /  3.9 °C 29.45in /  997.2hPa WSW 4.0mph /  6.4km/h 7.0mph /  11.3km/h 95% 0.00in /  0mm
23:49 40.4 °F /  4.7 °C 39.1 °F /  3.9 °C 29.45in /  997.2hPa WSW 4.0mph /  6.4km/h 8.0mph /  12.9km/h 95% 0.00in /  0mm
23:54 40.2 °F /  4.6 °C 38.9 °F /  3.8 °C 29.44in /  996.8hPa SW 5.0mph /  8km/h 8.0mph /  12.9km/h 95% 0.00in /  0mm
23:59 40.3 °F /  4.6 °C 39.0 °F /  3.9 °C 29.44in /  996.8hPa WSW 3.0mph /  4.8km/h 6.0mph /  9.7km/h 95% 0.00in /  0mm
Buffalo, New York, USA
Compliments of Weather Underground - 2.5 mb